Time;durP1;ratioP1;P1;durP2;ratioP2;P2;SDS_P1;SDS_P2;PMS_P1;PMS_P2;Temp;Humidity;BMP_temperature;BMP_pressure;BME280_temperature;BME280_humidity;BME280_pressure;Samples;Min_cycle;Max_cycle;Signal;HPM_P1;HPM_P2
2021/12/15 00:01:30;;;;;;;;;;;9.80;99.90;;;;;;5068253;28;20004;-77
2021/12/15 00:03:56;;;;;;;;;;;9.80;99.90;;;;;;5086721;28;20368;-79
2021/12/15 00:06:21;;;;;;;;;;;9.80;99.90;;;;;;5110689;28;19931;-77
2021/12/15 00:08:52;;;;;;;;;;;9.80;99.90;;;;;;5098330;28;19995;-77
2021/12/15 00:11:18;;;;;;;;;;;9.80;99.90;;;;;;5087481;28;19924;-77
2021/12/15 00:13:45;;;;;;;;;;;9.80;99.90;;;;;;5088003;28;19928;-80
2021/12/15 00:16:11;;;;;;;;;;;9.80;99.90;;;;;;5081165;28;19928;-77
2021/12/15 00:18:41;;;;;;;;;;;9.80;99.90;;;;;;5071501;28;19928;-77
2021/12/15 00:21:07;;;;;;;;;;;9.80;99.90;;;;;;5077222;28;19925;-77
2021/12/15 00:23:33;;;;;;;;;;;9.80;99.90;;;;;;5091750;28;19930;-77
2021/12/15 00:25:58;;;;;;;;;;;9.80;99.90;;;;;;5066722;28;19928;-77
2021/12/15 00:28:24;;;;;;;;;;;9.80;99.90;;;;;;5091372;28;19924;-77
2021/12/15 00:30:49;;;;;;;;;;;9.80;99.90;;;;;;5094343;27;19926;-77
2021/12/15 00:33:15;;;;;;;;;;;9.80;99.90;;;;;;5107723;28;19942;-77
2021/12/15 00:35:41;;;;;;;;;;;9.80;99.90;;;;;;5095185;28;20273;-77
2021/12/15 00:38:06;;;;;;;;;;;9.80;99.90;;;;;;5095071;27;19930;-79
2021/12/15 00:40:32;;;;;;;;;;;9.80;99.90;;;;;;5074552;28;19990;-82
2021/12/15 00:42:58;;;;;;;;;;;9.80;99.90;;;;;;5082081;28;19924;-77
2021/12/15 00:45:24;;;;;;;;;;;9.80;99.90;;;;;;5094859;28;19930;-77
2021/12/15 00:47:49;;;;;;;;;;;9.90;99.90;;;;;;5060035;28;19924;-78
2021/12/15 00:50:17;;;;;;;;;;;9.90;99.90;;;;;;5111252;28;20398;-77
2021/12/15 00:52:43;;;;;;;;;;;9.90;99.90;;;;;;5077116;28;19928;-76
2021/12/15 00:55:10;;;;;;;;;;;9.90;99.90;;;;;;5077617;28;19924;-78
2021/12/15 00:57:36;;;;;;;;;;;9.80;99.90;;;;;;5096385;28;19924;-77
2021/12/15 01:00:04;;;;;;;;;;;9.90;99.90;;;;;;5108801;28;20287;-76
2021/12/15 01:02:30;;;;;;;;;;;9.90;99.90;;;;;;5095100;28;20619;-77
2021/12/15 01:04:56;;;;;;;;;;;9.90;99.90;;;;;;5095456;28;19930;-77
2021/12/15 01:07:21;;;;;;;;;;;9.90;99.90;;;;;;5097083;28;19928;-77
2021/12/15 01:09:53;;;;;;;;;;;9.90;99.90;;;;;;5078554;28;19979;-76
2021/12/15 01:12:41;;;;;;;;;;;9.90;99.90;;;;;;5109038;28;20341;-81
2021/12/15 01:20:26;;;;;;;;;;;9.90;99.90;;;;;;5111970;27;20422;-79
2021/12/15 01:22:53;;;;;;;;;;;9.90;99.90;;;;;;5076734;28;19931;-77
2021/12/15 01:25:31;;;;;;;;;;;9.90;99.90;;;;;;5082185;28;19977;-76
2021/12/15 01:27:57;;;;;;;;;;;9.90;99.90;;;;;;5095746;28;19928;-76
2021/12/15 01:30:24;;;;;;;;;;;9.90;99.90;;;;;;5096992;28;19972;-77
2021/12/15 01:32:50;;;;;;;;;;;9.90;99.90;;;;;;5080320;28;19928;-77
2021/12/15 01:35:17;;;;;;;;;;;9.90;99.90;;;;;;5125806;27;19928;-76
2021/12/15 01:37:43;;;;;;;;;;;9.90;99.90;;;;;;5089555;28;20285;-76
2021/12/15 01:40:15;;;;;;;;;;;9.90;99.90;;;;;;5077054;28;19928;-76
2021/12/15 01:42:41;;;;;;;;;;;9.90;99.90;;;;;;5080615;28;19928;-76
2021/12/15 01:47:59;;;;;;;;;;;9.90;99.90;;;;;;5114424;27;19973;-77
2021/12/15 01:50:25;;;;;;;;;;;9.90;99.90;;;;;;5075678;28;19928;-77
2021/12/15 01:52:50;;;;;;;;;;;9.90;99.90;;;;;;5083124;28;19932;-77
2021/12/15 01:55:18;;;;;;;;;;;10.00;99.90;;;;;;5093092;28;19931;-77
2021/12/15 01:57:44;;;;;;;;;;;10.00;99.90;;;;;;5075915;28;19928;-77
2021/12/15 02:00:12;;;;;;;;;;;10.00;99.90;;;;;;5071753;28;19923;-76
2021/12/15 02:02:38;;;;;;;;;;;10.00;99.90;;;;;;5089723;28;19924;-76
2021/12/15 02:05:03;;;;;;;;;;;10.00;99.90;;;;;;5096315;28;19950;-76
2021/12/15 02:07:30;;;;;;;;;;;10.00;99.90;;;;;;5113667;28;19924;-78
2021/12/15 02:12:28;;;;;;;;;;;10.00;99.90;;;;;;5090111;28;19928;-79
2021/12/15 02:14:54;;;;;;;;;;;10.00;99.90;;;;;;5112755;28;19931;-77
2021/12/15 02:17:20;;;;;;;;;;;10.00;99.90;;;;;;5113735;28;19924;-80
2021/12/15 02:19:46;;;;;;;;;;;10.00;99.90;;;;;;5084251;28;20384;-76
2021/12/15 02:22:12;;;;;;;;;;;10.00;99.90;;;;;;5123988;27;20007;-77
2021/12/15 02:24:39;;;;;;;;;;;10.00;99.90;;;;;;5073738;28;19978;-76
2021/12/15 02:27:05;;;;;;;;;;;10.00;99.90;;;;;;5061203;28;19932;-77
2021/12/15 02:29:34;;;;;;;;;;;10.00;99.90;;;;;;5078404;28;19934;-78
2021/12/15 02:39:46;;;;;;;;;;;10.00;99.90;;;;;;5125868;27;19924;-76
2021/12/15 02:42:11;;;;;;;;;;;10.00;99.90;;;;;;5099532;28;20453;-76
2021/12/15 02:44:43;;;;;;;;;;;10.00;99.90;;;;;;5109427;28;19924;-78
2021/12/15 02:47:09;;;;;;;;;;;10.00;99.90;;;;;;5095621;28;19985;-77
2021/12/15 02:49:35;;;;;;;;;;;10.00;99.90;;;;;;5070517;28;19946;-77
2021/12/15 02:52:01;;;;;;;;;;;10.00;99.90;;;;;;5092419;28;19928;-77
2021/12/15 02:54:27;;;;;;;;;;;10.00;99.90;;;;;;5095403;28;19966;-77
2021/12/15 02:56:53;;;;;;;;;;;10.00;99.90;;;;;;5081814;28;19938;-76
2021/12/15 02:59:25;;;;;;;;;;;10.00;99.90;;;;;;5082340;28;19924;-76
2021/12/15 03:07:03;;;;;;;;;;;10.00;99.90;;;;;;5107254;28;20274;-77
2021/12/15 03:17:32;;;;;;;;;;;9.90;99.90;;;;;;5107715;28;19924;-77
2021/12/15 03:19:58;;;;;;;;;;;9.90;99.90;;;;;;5073194;28;20270;-77
2021/12/15 03:22:24;;;;;;;;;;;9.90;99.90;;;;;;5068526;28;19967;-78
2021/12/15 03:24:49;;;;;;;;;;;9.90;99.90;;;;;;5075492;28;19977;-88
2021/12/15 03:27:20;;;;;;;;;;;9.90;99.90;;;;;;5095220;28;21159;-77
2021/12/15 03:35:35;;;;;;;;;;;9.90;99.90;;;;;;5055540;28;20399;-76
2021/12/15 03:38:01;;;;;;;;;;;9.90;99.90;;;;;;5089671;28;19967;-77
2021/12/15 03:40:37;;;;;;;;;;;9.90;99.90;;;;;;5095440;28;20033;-78
2021/12/15 03:43:04;;;;;;;;;;;9.90;99.90;;;;;;5128228;28;20463;-76
2021/12/15 03:45:32;;;;;;;;;;;9.90;99.90;;;;;;5084216;28;19951;-77
2021/12/15 03:48:01;;;;;;;;;;;9.90;99.90;;;;;;5091491;28;19928;-77
2021/12/15 03:50:27;;;;;;;;;;;9.90;99.90;;;;;;5107279;28;20031;-77
2021/12/15 03:52:53;;;;;;;;;;;9.90;99.90;;;;;;5040779;28;20007;-88
2021/12/15 03:55:20;;;;;;;;;;;9.90;99.90;;;;;;5099734;28;19931;-77
2021/12/15 03:57:46;;;;;;;;;;;9.90;99.90;;;;;;5093351;28;19977;-78
2021/12/15 04:00:12;;;;;;;;;;;9.90;99.90;;;;;;5087091;28;20148;-77
2021/12/15 04:02:38;;;;;;;;;;;9.90;99.90;;;;;;5099386;28;19950;-77
2021/12/15 04:05:05;;;;;;;;;;;9.80;99.90;;;;;;5108748;28;19923;-82
2021/12/15 04:07:30;;;;;;;;;;;9.90;99.90;;;;;;5091947;28;19939;-78
2021/12/15 04:09:56;;;;;;;;;;;9.90;99.90;;;;;;5092798;28;19924;-77
2021/12/15 04:12:22;;;;;;;;;;;9.90;99.90;;;;;;5076888;28;19923;-79
2021/12/15 04:14:55;;;;;;;;;;;9.90;99.90;;;;;;5087130;28;20018;-77
2021/12/15 04:17:30;;;;;;;;;;;9.90;99.90;;;;;;5096589;28;19928;-77
2021/12/15 04:20:05;;;;;;;;;;;9.90;99.90;;;;;;5096209;28;20368;-87
2021/12/15 04:22:31;;;;;;;;;;;9.90;99.90;;;;;;5087857;28;20026;-79
2021/12/15 04:24:57;;;;;;;;;;;9.90;99.90;;;;;;5060069;28;20338;-77
2021/12/15 04:27:23;;;;;;;;;;;9.90;99.90;;;;;;5092998;28;20014;-78
2021/12/15 04:29:49;;;;;;;;;;;9.90;99.90;;;;;;5113901;27;20020;-77
2021/12/15 04:32:38;;;;;;;;;;;9.80;99.90;;;;;;5096740;28;19972;-77
2021/12/15 04:35:04;;;;;;;;;;;9.90;99.90;;;;;;5085884;28;19923;-77
2021/12/15 04:37:29;;;;;;;;;;;9.90;99.90;;;;;;5115954;28;20391;-77
2021/12/15 04:39:55;;;;;;;;;;;9.80;99.90;;;;;;5068892;28;19930;-77
2021/12/15 04:42:23;;;;;;;;;;;9.80;99.90;;;;;;5087718;28;19928;-78
2021/12/15 04:44:51;;;;;;;;;;;9.80;99.90;;;;;;5079813;28;19924;-77
2021/12/15 04:47:16;;;;;;;;;;;9.80;99.90;;;;;;5076577;28;20612;-77
2021/12/15 04:49:47;;;;;;;;;;;9.80;99.90;;;;;;5096919;28;19928;-77
2021/12/15 04:52:15;;;;;;;;;;;9.80;99.90;;;;;;5120184;27;19930;-77
2021/12/15 04:54:41;;;;;;;;;;;9.80;99.90;;;;;;5106667;28;19928;-77
2021/12/15 04:57:07;;;;;;;;;;;9.80;99.90;;;;;;5063739;28;19928;-77
2021/12/15 04:59:33;;;;;;;;;;;9.90;99.90;;;;;;5093527;28;20326;-77
2021/12/15 05:01:58;;;;;;;;;;;9.80;99.90;;;;;;5115213;28;19924;-77
2021/12/15 05:04:24;;;;;;;;;;;9.80;99.90;;;;;;5115014;28;19953;-77
2021/12/15 05:06:50;;;;;;;;;;;9.90;99.90;;;;;;5130896;27;20502;-77
2021/12/15 05:09:15;;;;;;;;;;;9.80;99.90;;;;;;5114049;28;19924;-79
2021/12/15 05:11:41;;;;;;;;;;;9.80;99.90;;;;;;5099970;28;19924;-77
2021/12/15 05:14:07;;;;;;;;;;;9.80;99.90;;;;;;5096719;28;19923;-76
2021/12/15 05:16:33;;;;;;;;;;;9.80;99.90;;;;;;5097153;28;20428;-77
2021/12/15 05:18:59;;;;;;;;;;;9.90;99.90;;;;;;5097568;28;20056;-77
2021/12/15 05:21:25;;;;;;;;;;;9.80;99.90;;;;;;5088217;28;20010;-77
2021/12/15 05:23:56;;;;;;;;;;;9.80;99.90;;;;;;5079275;28;19931;-79
2021/12/15 05:26:23;;;;;;;;;;;9.80;99.90;;;;;;5080764;28;19930;-77
2021/12/15 05:28:49;;;;;;;;;;;9.90;99.90;;;;;;5113753;28;19938;-76
2021/12/15 05:31:14;;;;;;;;;;;9.80;99.90;;;;;;5065897;28;19946;-77
2021/12/15 05:33:40;;;;;;;;;;;9.80;99.90;;;;;;5095610;28;20018;-76
2021/12/15 05:36:06;;;;;;;;;;;9.80;99.90;;;;;;5094280;28;19934;-83
2021/12/15 05:38:31;;;;;;;;;;;9.80;99.90;;;;;;5084421;28;20008;-75
2021/12/15 05:40:59;;;;;;;;;;;9.80;99.90;;;;;;5083276;28;19928;-76
2021/12/15 05:43:25;;;;;;;;;;;9.90;99.90;;;;;;5074901;28;19926;-75
2021/12/15 05:45:51;;;;;;;;;;;9.80;99.90;;;;;;5100327;28;20014;-76
2021/12/15 05:48:18;;;;;;;;;;;9.80;99.90;;;;;;5077999;28;19928;-76
2021/12/15 05:50:45;;;;;;;;;;;9.80;99.90;;;;;;5113100;27;19924;-79
2021/12/15 05:53:11;;;;;;;;;;;9.80;99.90;;;;;;5117491;27;19985;-77
2021/12/15 05:55:37;;;;;;;;;;;9.80;99.90;;;;;;5121824;27;20276;-76
2021/12/15 05:58:04;;;;;;;;;;;9.80;99.90;;;;;;5110153;28;19950;-77
2021/12/15 06:00:31;;;;;;;;;;;9.80;99.90;;;;;;5082906;28;19924;-77
2021/12/15 06:02:57;;;;;;;;;;;9.80;99.90;;;;;;5113837;28;19970;-77
2021/12/15 06:05:24;;;;;;;;;;;9.80;99.90;;;;;;5078394;28;19930;-77
2021/12/15 06:07:49;;;;;;;;;;;9.80;99.90;;;;;;5087687;28;20403;-77
2021/12/15 06:10:19;;;;;;;;;;;9.80;99.90;;;;;;5067810;28;19924;-77
2021/12/15 06:12:47;;;;;;;;;;;9.80;99.90;;;;;;5085994;28;20442;-77
2021/12/15 06:15:20;;;;;;;;;;;9.80;99.90;;;;;;5091089;28;19959;-77
2021/12/15 06:17:45;;;;;;;;;;;9.80;99.90;;;;;;5083995;28;20012;-77
2021/12/15 06:20:11;;;;;;;;;;;9.80;99.90;;;;;;5094415;28;20019;-77
2021/12/15 06:22:39;;;;;;;;;;;9.80;99.90;;;;;;5096294;28;20022;-77
2021/12/15 06:25:05;;;;;;;;;;;9.80;99.90;;;;;;5076872;28;19928;-77
2021/12/15 06:27:35;;;;;;;;;;;9.80;99.90;;;;;;5113149;28;20332;-77
2021/12/15 06:30:00;;;;;;;;;;;9.80;99.90;;;;;;5072028;28;20385;-77
2021/12/15 06:32:27;;;;;;;;;;;9.80;99.90;;;;;;5077523;28;19924;-77
2021/12/15 06:34:52;;;;;;;;;;;9.80;99.90;;;;;;5061865;28;19924;-77
2021/12/15 06:37:18;;;;;;;;;;;9.80;99.90;;;;;;5112128;27;19931;-77
2021/12/15 06:39:44;;;;;;;;;;;9.80;99.90;;;;;;5079669;28;19927;-76
2021/12/15 06:42:10;;;;;;;;;;;9.90;99.90;;;;;;5095377;28;20399;-85
2021/12/15 06:44:35;;;;;;;;;;;9.80;99.90;;;;;;5079259;27;20011;-77
2021/12/15 06:58:15;;;;;;;;;;;9.80;99.90;;;;;;5109285;28;19924;-84
2021/12/15 07:00:46;;;;;;;;;;;9.80;99.90;;;;;;5093687;27;19993;-77
2021/12/15 07:03:12;;;;;;;;;;;9.80;99.90;;;;;;5109921;28;19950;-79
2021/12/15 07:05:38;;;;;;;;;;;9.80;99.90;;;;;;5112155;28;19924;-77
2021/12/15 07:08:06;;;;;;;;;;;9.80;99.90;;;;;;5112097;28;19935;-76
2021/12/15 07:10:34;;;;;;;;;;;9.80;99.90;;;;;;5112710;28;19924;-77
2021/12/15 07:13:00;;;;;;;;;;;9.80;99.90;;;;;;5111675;28;20284;-77
2021/12/15 07:15:26;;;;;;;;;;;9.80;99.90;;;;;;5111970;27;19924;-77
2021/12/15 07:17:57;;;;;;;;;;;9.80;99.90;;;;;;5112151;28;19928;-77
2021/12/15 07:20:49;;;;;;;;;;;9.80;99.90;;;;;;5128866;27;19977;-78
2021/12/15 07:23:17;;;;;;;;;;;9.80;99.90;;;;;;5095250;28;19924;-78
2021/12/15 07:25:43;;;;;;;;;;;9.80;99.90;;;;;;5094885;28;19928;-77
2021/12/15 07:28:09;;;;;;;;;;;9.80;99.90;;;;;;5112821;28;19930;-77
2021/12/15 07:30:35;;;;;;;;;;;9.80;99.90;;;;;;5094475;28;19924;-77
2021/12/15 07:33:02;;;;;;;;;;;9.80;99.90;;;;;;5094739;28;19932;-77
2021/12/15 07:35:28;;;;;;;;;;;9.80;99.90;;;;;;5112074;28;19970;-77
2021/12/15 07:37:53;;;;;;;;;;;9.80;99.90;;;;;;5077819;28;20482;-77
2021/12/15 07:40:21;;;;;;;;;;;9.80;99.90;;;;;;5112544;28;19977;-83
2021/12/15 07:45:30;;;;;;;;;;;9.80;99.90;;;;;;5093930;28;19931;-81
2021/12/15 07:47:57;;;;;;;;;;;9.80;99.90;;;;;;5096541;28;19979;-77
2021/12/15 07:50:23;;;;;;;;;;;9.80;99.90;;;;;;5097258;28;20365;-78
2021/12/15 07:52:50;;;;;;;;;;;9.80;99.90;;;;;;5080807;28;19935;-80
2021/12/15 07:55:16;;;;;;;;;;;9.80;99.90;;;;;;5115780;28;19935;-79
2021/12/15 07:57:42;;;;;;;;;;;9.80;99.90;;;;;;5115383;28;19923;-77
2021/12/15 08:00:09;;;;;;;;;;;9.80;99.90;;;;;;5097770;28;20296;-77
2021/12/15 08:02:35;;;;;;;;;;;9.80;99.90;;;;;;5097057;28;20287;-77
2021/12/15 08:05:00;;;;;;;;;;;9.80;99.90;;;;;;5097190;28;20014;-78
2021/12/15 08:07:26;;;;;;;;;;;9.90;99.90;;;;;;5097006;28;19930;-77
2021/12/15 08:09:51;;;;;;;;;;;9.90;99.90;;;;;;5115434;28;20093;-77
2021/12/15 08:12:17;;;;;;;;;;;9.80;99.90;;;;;;5115957;28;19982;-77
2021/12/15 08:14:43;;;;;;;;;;;9.90;99.90;;;;;;5114950;28;19924;-77
2021/12/15 08:17:08;;;;;;;;;;;9.90;99.90;;;;;;5097012;28;19943;-77
2021/12/15 08:19:34;;;;;;;;;;;9.90;99.90;;;;;;5096761;28;19927;-77
2021/12/15 08:22:00;;;;;;;;;;;9.90;99.90;;;;;;5097040;28;19924;-79
2021/12/15 08:24:25;;;;;;;;;;;9.90;99.90;;;;;;5096893;28;20049;-77
2021/12/15 08:26:51;;;;;;;;;;;9.90;99.90;;;;;;5097088;28;19954;-78
2021/12/15 08:29:16;;;;;;;;;;;9.90;99.90;;;;;;5097375;28;19924;-77
2021/12/15 08:31:42;;;;;;;;;;;9.90;99.90;;;;;;5096352;28;19975;-77
2021/12/15 08:34:08;;;;;;;;;;;9.90;99.90;;;;;;5096726;28;19928;-77
2021/12/15 08:36:34;;;;;;;;;;;9.90;99.90;;;;;;5096307;28;19934;-77
2021/12/15 08:39:00;;;;;;;;;;;9.90;99.90;;;;;;5096609;28;19950;-77
2021/12/15 08:41:27;;;;;;;;;;;9.90;99.90;;;;;;5114390;28;19935;-77
2021/12/15 08:43:53;;;;;;;;;;;9.90;99.90;;;;;;5096561;28;19930;-77
2021/12/15 08:46:21;;;;;;;;;;;9.90;99.90;;;;;;5096572;28;19927;-78
2021/12/15 08:48:47;;;;;;;;;;;9.90;99.90;;;;;;5095740;28;19927;-78
2021/12/15 08:51:14;;;;;;;;;;;9.90;99.90;;;;;;5096532;28;19927;-77
2021/12/15 08:53:41;;;;;;;;;;;9.90;99.90;;;;;;5114360;28;20015;-79
2021/12/15 08:56:08;;;;;;;;;;;9.90;99.90;;;;;;5096711;28;20017;-77
2021/12/15 08:58:33;;;;;;;;;;;9.90;99.90;;;;;;5112982;28;19924;-78
2021/12/15 09:00:59;;;;;;;;;;;10.00;99.90;;;;;;5096159;28;19935;-79
2021/12/15 09:03:26;;;;;;;;;;;10.00;99.90;;;;;;5114290;28;19937;-77
2021/12/15 09:05:52;;;;;;;;;;;10.00;99.90;;;;;;5130267;27;19927;-77
2021/12/15 09:08:18;;;;;;;;;;;10.00;99.90;;;;;;5095804;28;20018;-77
2021/12/15 09:10:45;;;;;;;;;;;10.00;99.90;;;;;;5095864;28;19928;-77
2021/12/15 09:13:12;;;;;;;;;;;10.00;99.90;;;;;;5096324;28;20018;-77
2021/12/15 09:15:38;;;;;;;;;;;10.00;99.90;;;;;;5130784;27;19923;-77
2021/12/15 09:18:04;;;;;;;;;;;10.10;99.90;;;;;;5131607;27;19930;-77
2021/12/15 09:20:30;;;;;;;;;;;10.00;99.90;;;;;;5097063;28;19969;-83
2021/12/15 09:22:57;;;;;;;;;;;10.10;99.90;;;;;;5114515;28;20393;-77
2021/12/15 09:25:23;;;;;;;;;;;10.10;99.90;;;;;;5114028;28;19924;-78
2021/12/15 09:27:48;;;;;;;;;;;10.10;99.90;;;;;;5113404;28;19924;-77
2021/12/15 09:30:19;;;;;;;;;;;10.20;99.90;;;;;;5113971;28;19924;-78
2021/12/15 09:32:44;;;;;;;;;;;10.20;99.90;;;;;;5147646;27;20296;-78
2021/12/15 09:35:11;;;;;;;;;;;10.20;99.90;;;;;;5114811;28;19931;-78
2021/12/15 09:37:37;;;;;;;;;;;10.20;99.90;;;;;;5113585;28;20031;-77
2021/12/15 09:40:04;;;;;;;;;;;10.20;99.90;;;;;;5113888;28;20018;-77
2021/12/15 09:42:34;;;;;;;;;;;10.30;99.90;;;;;;5114954;28;20014;-78
2021/12/15 09:45:16;;;;;;;;;;;10.30;99.90;;;;;;5148060;27;19931;-77
2021/12/15 09:56:20;;;;;;;;;;;10.30;99.90;;;;;;5112775;28;19987;-78
2021/12/15 10:11:54;;;;;;;;;;;10.20;99.90;;;;;;5095385;28;19924;-77
2021/12/15 10:19:51;;;;;;;;;;;10.30;99.90;;;;;;5095605;28;19924;-78
2021/12/15 10:22:34;;;;;;;;;;;10.40;99.90;;;;;;5095685;28;19977;-78
2021/12/15 10:25:09;;;;;;;;;;;10.40;99.90;;;;;;5078761;28;19932;-78
2021/12/15 10:27:49;;;;;;;;;;;10.40;99.90;;;;;;5095366;28;19924;-78
2021/12/15 10:30:24;;;;;;;;;;;10.40;99.90;;;;;;5095602;28;19978;-77
2021/12/15 10:32:52;;;;;;;;;;;10.50;99.90;;;;;;5095236;28;19924;-78
2021/12/15 10:35:19;;;;;;;;;;;10.50;99.90;;;;;;5095364;28;19933;-77
2021/12/15 10:38:05;;;;;;;;;;;10.50;99.90;;;;;;5129117;27;19977;-77
2021/12/15 10:40:31;;;;;;;;;;;10.60;99.90;;;;;;5094488;28;19935;-79
2021/12/15 10:43:00;;;;;;;;;;;10.60;99.90;;;;;;5094397;28;19924;-77
2021/12/15 10:45:32;;;;;;;;;;;10.60;99.90;;;;;;5095230;28;19963;-76
2021/12/15 10:47:58;;;;;;;;;;;10.60;99.90;;;;;;5128809;27;19931;-77
2021/12/15 10:50:24;;;;;;;;;;;10.60;99.90;;;;;;5095662;28;19924;-77
2021/12/15 10:52:53;;;;;;;;;;;10.60;99.90;;;;;;5077426;28;21573;-78
2021/12/15 10:55:18;;;;;;;;;;;10.60;99.90;;;;;;5095611;28;20361;-77
2021/12/15 10:57:44;;;;;;;;;;;10.70;99.90;;;;;;5095164;28;19930;-77
2021/12/15 11:00:13;;;;;;;;;;;10.70;99.90;;;;;;5078434;28;19923;-77
2021/12/15 11:02:39;;;;;;;;;;;10.70;99.90;;;;;;5105181;28;19993;-77
2021/12/15 11:05:10;;;;;;;;;;;10.70;99.90;;;;;;5095121;28;19927;-77
2021/12/15 11:07:37;;;;;;;;;;;10.80;99.90;;;;;;5112122;28;19930;-77
2021/12/15 11:10:13;;;;;;;;;;;10.80;99.90;;;;;;5146303;27;19928;-77
2021/12/15 11:12:42;;;;;;;;;;;10.90;99.90;;;;;;5112351;28;19924;-78
2021/12/15 11:15:13;;;;;;;;;;;10.80;99.90;;;;;;5113081;28;20389;-77
2021/12/15 11:17:54;;;;;;;;;;;10.90;99.90;;;;;;5095366;28;19924;-78
2021/12/15 11:20:23;;;;;;;;;;;10.90;99.90;;;;;;5111915;28;20276;-78
2021/12/15 11:22:50;;;;;;;;;;;10.90;99.90;;;;;;5097361;28;20284;-77
2021/12/15 11:25:19;;;;;;;;;;;10.90;99.90;;;;;;5094630;28;19931;-77
2021/12/15 11:27:50;;;;;;;;;;;11.00;99.90;;;;;;5094474;28;19923;-85
2021/12/15 11:30:20;;;;;;;;;;;10.90;99.90;;;;;;5078124;28;19924;-77
2021/12/15 11:32:47;;;;;;;;;;;10.80;99.90;;;;;;5077258;28;19927;-79
2021/12/15 11:35:13;;;;;;;;;;;10.80;99.90;;;;;;5094840;28;19930;-77
2021/12/15 11:37:42;;;;;;;;;;;10.80;99.90;;;;;;5094849;28;19928;-77
2021/12/15 11:40:08;;;;;;;;;;;10.80;99.90;;;;;;5094699;28;20292;-77
2021/12/15 11:42:37;;;;;;;;;;;10.80;99.90;;;;;;5094617;28;19923;-77
2021/12/15 11:45:10;;;;;;;;;;;10.80;99.90;;;;;;5094163;28;19928;-77
2021/12/15 11:47:37;;;;;;;;;;;10.80;99.90;;;;;;5074013;28;19924;-78
2021/12/15 11:50:13;;;;;;;;;;;10.80;99.90;;;;;;5091750;28;20403;-77
2021/12/15 11:52:40;;;;;;;;;;;10.80;99.90;;;;;;5091359;28;19924;-79
2021/12/15 11:55:07;;;;;;;;;;;10.80;99.90;;;;;;5090736;28;19934;-77
2021/12/15 11:57:34;;;;;;;;;;;10.90;99.90;;;;;;5057937;28;20011;-77
2021/12/15 12:00:05;;;;;;;;;;;10.90;99.90;;;;;;5090962;28;19986;-79
2021/12/15 12:02:35;;;;;;;;;;;10.90;99.90;;;;;;5091087;28;19971;-77
2021/12/15 12:05:02;;;;;;;;;;;10.90;99.90;;;;;;5090568;28;20357;-77
2021/12/15 12:07:33;;;;;;;;;;;10.90;99.90;;;;;;5090814;28;19924;-77
2021/12/15 12:10:01;;;;;;;;;;;10.90;99.90;;;;;;5090714;28;20044;-79
2021/12/15 12:12:33;;;;;;;;;;;10.90;99.90;;;;;;5073926;28;20023;-77
2021/12/15 12:14:59;;;;;;;;;;;10.80;99.90;;;;;;5090625;28;19977;-78
2021/12/15 12:17:27;;;;;;;;;;;10.80;99.90;;;;;;5090960;28;19928;-77
2021/12/15 12:19:52;;;;;;;;;;;10.90;99.90;;;;;;5090001;28;19924;-78
2021/12/15 12:22:19;;;;;;;;;;;10.90;99.90;;;;;;5090585;28;20018;-77
2021/12/15 12:24:46;;;;;;;;;;;10.90;99.90;;;;;;5090552;28;19931;-78
2021/12/15 12:27:13;;;;;;;;;;;10.90;99.90;;;;;;5090162;28;19935;-77
2021/12/15 12:29:38;;;;;;;;;;;10.90;99.90;;;;;;5073696;28;20010;-78
2021/12/15 12:32:05;;;;;;;;;;;10.80;99.90;;;;;;5073199;28;20039;-78
2021/12/15 12:34:31;;;;;;;;;;;10.90;99.90;;;;;;5093490;28;19981;-77
2021/12/15 12:36:57;;;;;;;;;;;10.80;99.90;;;;;;5077300;28;19975;-77
2021/12/15 12:39:29;;;;;;;;;;;10.80;99.90;;;;;;5095184;28;19931;-82
2021/12/15 12:41:55;;;;;;;;;;;10.80;99.90;;;;;;5093892;28;20281;-77
2021/12/15 12:44:22;;;;;;;;;;;10.80;99.90;;;;;;5095279;28;19928;-80
2021/12/15 12:47:00;;;;;;;;;;;10.80;99.90;;;;;;5093528;28;20277;-77
2021/12/15 12:50:20;;;;;;;;;;;10.80;99.90;;;;;;5093430;28;19977;-77
2021/12/15 13:01:02;;;;;;;;;;;10.80;99.90;;;;;;5061497;28;20015;-78
2021/12/15 13:03:35;;;;;;;;;;;10.80;99.90;;;;;;5076248;28;19999;-77
2021/12/15 13:06:03;;;;;;;;;;;10.80;99.90;;;;;;5076007;28;19928;-78
2021/12/15 13:08:28;;;;;;;;;;;10.70;99.90;;;;;;5092579;28;19928;-76
2021/12/15 13:10:57;;;;;;;;;;;10.70;99.90;;;;;;5093246;28;19932;-78
2021/12/15 13:13:25;;;;;;;;;;;10.60;99.90;;;;;;5093334;28;19971;-77
2021/12/15 13:15:56;;;;;;;;;;;10.60;99.90;;;;;;5093485;28;19932;-79
2021/12/15 13:18:21;;;;;;;;;;;10.60;99.90;;;;;;5093082;28;19975;-77
2021/12/15 13:20:55;;;;;;;;;;;10.40;99.90;;;;;;5093178;28;20396;-77
2021/12/15 13:23:33;;;;;;;;;;;10.40;99.90;;;;;;5072600;28;20001;-77
2021/12/15 13:28:48;;;;;;;;;;;10.30;99.90;;;;;;5106343;28;19928;-77
2021/12/15 13:31:24;;;;;;;;;;;10.20;99.90;;;;;;5056425;28;19929;-77
2021/12/15 13:33:51;;;;;;;;;;;10.20;99.90;;;;;;5072870;28;19985;-77
2021/12/15 13:36:18;;;;;;;;;;;10.10;99.90;;;;;;5089407;28;19933;-77
2021/12/15 13:38:50;;;;;;;;;;;10.10;99.90;;;;;;5089444;28;19925;-76
2021/12/15 13:41:20;;;;;;;;;;;10.10;99.90;;;;;;5071732;28;20663;-76
2021/12/15 13:43:57;;;;;;;;;;;10.20;99.90;;;;;;5072530;28;19976;-77
2021/12/15 13:46:23;;;;;;;;;;;10.10;99.90;;;;;;5068905;28;19930;-82
2021/12/15 13:48:58;;;;;;;;;;;10.00;99.90;;;;;;5071921;28;19924;-77
2021/12/15 13:51:42;;;;;;;;;;;9.90;99.90;;;;;;5071502;28;20019;-77
2021/12/15 13:54:26;;;;;;;;;;;9.80;99.90;;;;;;5071796;28;19931;-77
2021/12/15 13:56:53;;;;;;;;;;;9.70;99.90;;;;;;5072131;28;20017;-77
2021/12/15 13:59:37;;;;;;;;;;;9.60;99.90;;;;;;5105367;28;19936;-77
2021/12/15 14:02:09;;;;;;;;;;;9.60;99.90;;;;;;5079173;28;20008;-84
2021/12/15 14:04:44;;;;;;;;;;;9.60;99.90;;;;;;5091993;28;19924;-76
2021/12/15 14:07:28;;;;;;;;;;;9.60;99.90;;;;;;5091562;28;19924;-78
2021/12/15 14:09:58;;;;;;;;;;;9.60;99.90;;;;;;5091988;28;19939;-77
2021/12/15 14:12:42;;;;;;;;;;;9.60;99.90;;;;;;5074199;28;19924;-77
2021/12/15 14:15:08;;;;;;;;;;;9.70;99.90;;;;;;5074263;28;19924;-77
2021/12/15 14:17:34;;;;;;;;;;;9.70;99.90;;;;;;5093022;28;20396;-77
2021/12/15 14:19:59;;;;;;;;;;;9.70;99.90;;;;;;5074972;28;20357;-79
2021/12/15 14:22:25;;;;;;;;;;;9.80;99.90;;;;;;5092372;28;19963;-77
2021/12/15 14:24:54;;;;;;;;;;;9.80;99.90;;;;;;5074830;28;19927;-77
2021/12/15 14:27:20;;;;;;;;;;;9.80;99.90;;;;;;5091179;28;20437;-77
2021/12/15 14:29:46;;;;;;;;;;;9.80;99.90;;;;;;5092892;28;20361;-76
2021/12/15 14:32:12;;;;;;;;;;;9.80;99.90;;;;;;5074460;28;19924;-76
2021/12/15 14:34:39;;;;;;;;;;;9.90;99.90;;;;;;5091389;28;19931;-76
2021/12/15 14:37:07;;;;;;;;;;;9.90;99.90;;;;;;5091314;28;19924;-83
2021/12/15 14:39:38;;;;;;;;;;;9.90;99.90;;;;;;5091661;28;19990;-76
2021/12/15 14:42:15;;;;;;;;;;;9.90;99.90;;;;;;5091524;28;19928;-76
2021/12/15 14:44:42;;;;;;;;;;;9.90;99.90;;;;;;5074407;28;20395;-77
2021/12/15 14:47:11;;;;;;;;;;;9.90;99.90;;;;;;5090506;28;19924;-76
2021/12/15 14:49:39;;;;;;;;;;;9.90;99.90;;;;;;5091387;28;19924;-77
2021/12/15 14:52:09;;;;;;;;;;;9.90;99.90;;;;;;5074330;28;19924;-76
2021/12/15 14:54:35;;;;;;;;;;;9.80;99.90;;;;;;5091414;28;19924;-76
2021/12/15 14:57:08;;;;;;;;;;;9.80;99.90;;;;;;5091162;28;19928;-77
2021/12/15 14:59:39;;;;;;;;;;;9.80;99.90;;;;;;5091410;28;19924;-76
2021/12/15 15:02:07;;;;;;;;;;;9.80;99.90;;;;;;5074217;28;20006;-76
2021/12/15 15:04:33;;;;;;;;;;;9.80;99.90;;;;;;5090895;28;19932;-76
2021/12/15 15:07:02;;;;;;;;;;;9.80;99.90;;;;;;5092043;28;19924;-77
2021/12/15 15:09:33;;;;;;;;;;;9.80;99.90;;;;;;5090970;28;20304;-76
2021/12/15 15:12:01;;;;;;;;;;;9.80;99.90;;;;;;5091376;28;19971;-77
2021/12/15 15:14:27;;;;;;;;;;;9.70;99.90;;;;;;5073596;28;20007;-76
2021/12/15 15:16:52;;;;;;;;;;;9.70;99.90;;;;;;5091248;28;20011;-76
2021/12/15 15:19:19;;;;;;;;;;;9.70;99.90;;;;;;5090637;28;19975;-77
2021/12/15 15:21:45;;;;;;;;;;;9.70;99.90;;;;;;5074354;28;19924;-76
2021/12/15 15:24:29;;;;;;;;;;;9.70;99.90;;;;;;5090530;28;19965;-76
2021/12/15 15:26:56;;;;;;;;;;;9.70;99.90;;;;;;5090836;28;19932;-77
2021/12/15 15:29:35;;;;;;;;;;;9.60;99.90;;;;;;5090268;28;20318;-76
2021/12/15 15:32:08;;;;;;;;;;;9.60;99.90;;;;;;5074021;28;19947;-76
2021/12/15 15:34:34;;;;;;;;;;;9.60;99.90;;;;;;5073680;28;19985;-78
2021/12/15 15:36:59;;;;;;;;;;;9.60;99.90;;;;;;5091068;28;19924;-77
2021/12/15 15:39:25;;;;;;;;;;;9.60;99.90;;;;;;5090530;28;19924;-76
2021/12/15 15:41:50;;;;;;;;;;;9.50;99.90;;;;;;5091452;28;19978;-78
2021/12/15 15:44:17;;;;;;;;;;;9.50;99.90;;;;;;5091282;28;19924;-76
2021/12/15 15:46:44;;;;;;;;;;;9.50;99.90;;;;;;5073862;28;19931;-76
2021/12/15 15:49:11;;;;;;;;;;;9.50;99.90;;;;;;5090755;28;20015;-78
2021/12/15 15:51:38;;;;;;;;;;;9.50;99.90;;;;;;5073616;28;19933;-77
2021/12/15 15:54:06;;;;;;;;;;;9.50;99.90;;;;;;5090574;28;20022;-76
2021/12/15 15:56:34;;;;;;;;;;;9.50;99.90;;;;;;5073455;28;19932;-76
2021/12/15 15:59:04;;;;;;;;;;;9.50;99.90;;;;;;5073870;28;19925;-76
2021/12/15 16:01:31;;;;;;;;;;;9.50;99.90;;;;;;5090129;28;19950;-78